Terminal Aerodrome Forecast
Issued by NWS Sterling, VA

Current Version | Previous Version | Graphics & Text | Print | Product List | Glossary On
Versions: 1 2 3 4 5 6 7 8 9 10 11 12 13 14 15 16 17 18 19 20 21 22 23
000
FTUS41 KLWX 010416 AAB
TAFMRB
TAF AMD
KMRB 010416Z 0104/0124 VRB04KT P6SM VCSH SCT030 BKN080
     FM010700 VRB04KT 3SM BR VCSH OVC020
     FM011100 05008KT 5SM BR OVC008
     FM011400 04007KT P6SM BKN015
     FM011700 05005KT P6SM BKN035=

USA.gov is the U.S. government's official web portal to all federal, state and local government web resources and services.